sensor_id;sensor_type;location;lat;lon;timestamp;pressure;altitude;pressure_sealevel;temperature;humidity
38227;BME280;24026;49.446;8.576;2022-12-07T00:01:15;100675.06;;;13.19;47.58
38227;BME280;24026;49.446;8.576;2022-12-07T00:03:37;100674.28;;;13.19;47.53
38227;BME280;24026;49.446;8.576;2022-12-07T00:05:58;100677.69;;;13.14;47.66
38227;BME280;24026;49.446;8.576;2022-12-07T00:08:19;100670.72;;;13.13;47.38
38227;BME280;24026;49.446;8.576;2022-12-07T00:10:39;100676.06;;;13.13;47.65
38227;BME280;24026;49.446;8.576;2022-12-07T00:13:00;100673.97;;;13.15;47.59
38227;BME280;24026;49.446;8.576;2022-12-07T00:15:20;100674.22;;;13.13;47.50
38227;BME280;24026;49.446;8.576;2022-12-07T00:17:41;100669.94;;;13.12;47.65
38227;BME280;24026;49.446;8.576;2022-12-07T00:20:01;100671.75;;;13.07;47.67
38227;BME280;24026;49.446;8.576;2022-12-07T00:22:21;100675.53;;;13.11;47.66
38227;BME280;24026;49.446;8.576;2022-12-07T00:24:42;100675.75;;;13.09;47.35
38227;BME280;24026;49.446;8.576;2022-12-07T00:27:02;100672.06;;;13.10;47.59
38227;BME280;24026;49.446;8.576;2022-12-07T00:29:23;100668.53;;;13.05;47.56
38227;BME280;24026;49.446;8.576;2022-12-07T00:31:43;100665.88;;;13.05;47.67
38227;BME280;24026;49.446;8.576;2022-12-07T00:34:06;100662.91;;;13.06;47.56
38227;BME280;24026;49.446;8.576;2022-12-07T00:36:27;100651.16;;;13.02;47.61
38227;BME280;24026;49.446;8.576;2022-12-07T00:38:47;100648.72;;;13.01;47.62
38227;BME280;24026;49.446;8.576;2022-12-07T00:41:13;100650.66;;;13.05;47.55
38227;BME280;24026;49.446;8.576;2022-12-07T00:43:34;100643.69;;;13.04;47.62
38227;BME280;24026;49.446;8.576;2022-12-07T00:45:54;100649.28;;;13.03;47.66
38227;BME280;24026;49.446;8.576;2022-12-07T00:48:15;100653.28;;;13.00;47.74
38227;BME280;24026;49.446;8.576;2022-12-07T00:50:35;100653.81;;;13.02;47.83
38227;BME280;24026;49.446;8.576;2022-12-07T00:52:56;100659.94;;;13.03;47.65
38227;BME280;24026;49.446;8.576;2022-12-07T00:55:16;100660.44;;;13.00;47.47
38227;BME280;24026;49.446;8.576;2022-12-07T00:57:36;100657.22;;;12.97;47.54
38227;BME280;24026;49.446;8.576;2022-12-07T00:59:57;100655.41;;;12.98;47.57
38227;BME280;24026;49.446;8.576;2022-12-07T01:02:17;100662.31;;;12.99;47.53
38227;BME280;24026;49.446;8.576;2022-12-07T01:04:38;100656.44;;;12.97;47.67
38227;BME280;24026;49.446;8.576;2022-12-07T01:06:58;100658.06;;;12.98;47.42
38227;BME280;24026;49.446;8.576;2022-12-07T01:09:18;100658.31;;;12.96;47.61
38227;BME280;24026;49.446;8.576;2022-12-07T01:11:39;100655.63;;;12.96;47.87
38227;BME280;24026;49.446;8.576;2022-12-07T01:14:00;100655.88;;;12.95;47.60
38227;BME280;24026;49.446;8.576;2022-12-07T01:16:23;100664.13;;;12.93;47.54
38227;BME280;24026;49.446;8.576;2022-12-07T01:18:46;100658.56;;;12.95;47.64
38227;BME280;24026;49.446;8.576;2022-12-07T01:21:14;100667.59;;;12.94;47.56
38227;BME280;24026;49.446;8.576;2022-12-07T01:23:35;100660.94;;;12.91;47.77
38227;BME280;24026;49.446;8.576;2022-12-07T01:26:01;100663.91;;;12.95;47.51
38227;BME280;24026;49.446;8.576;2022-12-07T01:28:22;100662.53;;;12.92;47.66
38227;BME280;24026;49.446;8.576;2022-12-07T01:30:43;100655.00;;;12.89;47.82
38227;BME280;24026;49.446;8.576;2022-12-07T01:33:03;100653.91;;;12.85;47.91
38227;BME280;24026;49.446;8.576;2022-12-07T01:35:24;100655.78;;;12.85;47.73
38227;BME280;24026;49.446;8.576;2022-12-07T01:37:44;100649.06;;;12.82;47.82
38227;BME280;24026;49.446;8.576;2022-12-07T01:40:06;100643.97;;;12.81;47.89
38227;BME280;24026;49.446;8.576;2022-12-07T01:42:28;100651.75;;;12.82;47.93
38227;BME280;24026;49.446;8.576;2022-12-07T01:47:50;100645.03;;;12.79;47.77
38227;BME280;24026;49.446;8.576;2022-12-07T01:50:12;100651.25;;;12.85;47.65
38227;BME280;24026;49.446;8.576;2022-12-07T01:52:33;100646.41;;;12.82;47.74
38227;BME280;24026;49.446;8.576;2022-12-07T01:55:04;100651.44;;;12.78;47.88
38227;BME280;24026;49.446;8.576;2022-12-07T01:57:25;100652.53;;;12.83;47.82
38227;BME280;24026;49.446;8.576;2022-12-07T01:59:49;100655.78;;;12.85;47.68
38227;BME280;24026;49.446;8.576;2022-12-07T02:02:21;100650.13;;;12.81;47.96
38227;BME280;24026;49.446;8.576;2022-12-07T02:04:43;100652.00;;;12.81;47.71
38227;BME280;24026;49.446;8.576;2022-12-07T02:07:05;100656.53;;;12.80;47.79
38227;BME280;24026;49.446;8.576;2022-12-07T02:09:25;100654.66;;;12.81;47.81
38227;BME280;24026;49.446;8.576;2022-12-07T02:11:45;100654.09;;;12.78;47.75
38227;BME280;24026;49.446;8.576;2022-12-07T02:14:06;100649.00;;;12.77;47.70
38227;BME280;24026;49.446;8.576;2022-12-07T02:27:07;100634.06;;;12.76;47.87
38227;BME280;24026;49.446;8.576;2022-12-07T02:32:14;100623.09;;;12.72;47.93
38227;BME280;24026;49.446;8.576;2022-12-07T02:40:00;100607.34;;;12.71;48.13
38227;BME280;24026;49.446;8.576;2022-12-07T02:42:30;100612.13;;;12.69;47.84
38227;BME280;24026;49.446;8.576;2022-12-07T02:44:52;100625.44;;;12.69;47.68
38227;BME280;24026;49.446;8.576;2022-12-07T02:47:15;100628.13;;;12.69;47.82
38227;BME280;24026;49.446;8.576;2022-12-07T02:49:38;100635.56;;;12.67;47.98
38227;BME280;24026;49.446;8.576;2022-12-07T02:51:59;100637.16;;;12.68;48.04
38227;BME280;24026;49.446;8.576;2022-12-07T02:54:21;100629.69;;;12.65;47.98
38227;BME280;24026;49.446;8.576;2022-12-07T03:10:00;100624.28;;;12.59;47.97
38227;BME280;24026;49.446;8.576;2022-12-07T03:12:31;100622.44;;;12.60;48.05
38227;BME280;24026;49.446;8.576;2022-12-07T03:15:02;100619.50;;;12.62;47.96
38227;BME280;24026;49.446;8.576;2022-12-07T03:17:27;100615.72;;;12.57;48.08
38227;BME280;24026;49.446;8.576;2022-12-07T03:19:53;100618.13;;;12.59;48.07
38227;BME280;24026;49.446;8.576;2022-12-07T03:22:15;100613.06;;;12.57;48.02
38227;BME280;24026;49.446;8.576;2022-12-07T03:24:43;100604.25;;;12.57;47.91
38227;BME280;24026;49.446;8.576;2022-12-07T03:27:16;100606.94;;;12.57;47.87
38227;BME280;24026;49.446;8.576;2022-12-07T03:29:49;100610.38;;;12.57;47.94
38227;BME280;24026;49.446;8.576;2022-12-07T03:32:17;100601.84;;;12.55;47.91
38227;BME280;24026;49.446;8.576;2022-12-07T03:34:49;100601.84;;;12.55;48.10
38227;BME280;24026;49.446;8.576;2022-12-07T03:37:17;100598.63;;;12.53;47.84
38227;BME280;24026;49.446;8.576;2022-12-07T03:42:27;100592.47;;;12.53;48.03
38227;BME280;24026;49.446;8.576;2022-12-07T03:44:48;100586.34;;;12.52;47.95
38227;BME280;24026;49.446;8.576;2022-12-07T03:52:16;100587.66;;;12.50;48.14
38227;BME280;24026;49.446;8.576;2022-12-07T03:54:43;100592.41;;;12.48;48.09
38227;BME280;24026;49.446;8.576;2022-12-07T03:57:06;100592.66;;;12.46;48.05
38227;BME280;24026;49.446;8.576;2022-12-07T03:59:29;100593.47;;;12.47;47.81
38227;BME280;24026;49.446;8.576;2022-12-07T04:01:55;100588.16;;;12.47;48.09
38227;BME280;24026;49.446;8.576;2022-12-07T04:04:17;100586.53;;;12.46;47.90
38227;BME280;24026;49.446;8.576;2022-12-07T04:06:37;100591.06;;;12.45;48.01
38227;BME280;24026;49.446;8.576;2022-12-07T04:08:58;100587.59;;;12.45;47.98
38227;BME280;24026;49.446;8.576;2022-12-07T04:11:18;100592.34;;;12.42;47.94
38227;BME280;24026;49.446;8.576;2022-12-07T04:13:38;100591.31;;;12.44;47.99
38227;BME280;24026;49.446;8.576;2022-12-07T04:16:17;100587.00;;;12.42;48.19
38227;BME280;24026;49.446;8.576;2022-12-07T04:18:37;100586.47;;;12.40;48.11
38227;BME280;24026;49.446;8.576;2022-12-07T04:20:58;100585.97;;;12.44;47.90
38227;BME280;24026;49.446;8.576;2022-12-07T04:23:18;100584.34;;;12.42;48.07
38227;BME280;24026;49.446;8.576;2022-12-07T04:25:39;100582.75;;;12.41;48.07
38227;BME280;24026;49.446;8.576;2022-12-07T04:27:59;100582.75;;;12.41;47.96
38227;BME280;24026;49.446;8.576;2022-12-07T04:30:19;100582.19;;;12.39;48.12
38227;BME280;24026;49.446;8.576;2022-12-07T04:32:40;100580.34;;;12.40;48.09
38227;BME280;24026;49.446;8.576;2022-12-07T04:35:00;100577.91;;;12.38;48.06
38227;BME280;24026;49.446;8.576;2022-12-07T04:37:21;100580.84;;;12.37;48.13
38227;BME280;24026;49.446;8.576;2022-12-07T04:39:41;100582.69;;;12.36;48.03
38227;BME280;24026;49.446;8.576;2022-12-07T04:42:03;100588.03;;;12.36;48.26
38227;BME280;24026;49.446;8.576;2022-12-07T04:44:25;100586.16;;;12.37;47.81
38227;BME280;24026;49.446;8.576;2022-12-07T04:46:46;100588.81;;;12.37;47.91
38227;BME280;24026;49.446;8.576;2022-12-07T04:49:06;100594.16;;;12.37;48.23
38227;BME280;24026;49.446;8.576;2022-12-07T04:51:28;100604.56;;;12.38;48.14
38227;BME280;24026;49.446;8.576;2022-12-07T04:53:49;100608.53;;;12.36;47.96
38227;BME280;24026;49.446;8.576;2022-12-07T04:56:10;100601.34;;;12.36;48.07
38227;BME280;24026;49.446;8.576;2022-12-07T04:58:30;100599.72;;;12.35;48.00
38227;BME280;24026;49.446;8.576;2022-12-07T05:00:54;100584.78;;;12.34;47.92
38227;BME280;24026;49.446;8.576;2022-12-07T05:03:14;100584.53;;;12.36;48.15
38227;BME280;24026;49.446;8.576;2022-12-07T05:05:34;100567.44;;;12.32;48.24
38227;BME280;24026;49.446;8.576;2022-12-07T05:07:55;100573.56;;;12.32;47.99
38227;BME280;24026;49.446;8.576;2022-12-07T05:10:16;100568.50;;;12.31;48.20
38227;BME280;24026;49.446;8.576;2022-12-07T05:12:36;100570.34;;;12.30;48.21
38227;BME280;24026;49.446;8.576;2022-12-07T05:14:57;100573.03;;;12.30;48.27
38227;BME280;24026;49.446;8.576;2022-12-07T05:17:17;100569.81;;;12.28;48.19
38227;BME280;24026;49.446;8.576;2022-12-07T05:19:37;100572.22;;;12.30;48.21
38227;BME280;24026;49.446;8.576;2022-12-07T05:21:58;100576.47;;;12.31;48.43
38227;BME280;24026;49.446;8.576;2022-12-07T05:24:18;100567.69;;;12.30;48.16
38227;BME280;24026;49.446;8.576;2022-12-07T05:26:39;100571.41;;;12.29;48.25
38227;BME280;24026;49.446;8.576;2022-12-07T05:28:59;100575.13;;;12.28;48.29
38227;BME280;24026;49.446;8.576;2022-12-07T05:31:20;100570.59;;;12.29;48.20
38227;BME280;24026;49.446;8.576;2022-12-07T05:33:41;100573.50;;;12.27;48.16
38227;BME280;24026;49.446;8.576;2022-12-07T05:36:03;100574.31;;;12.28;48.19
38227;BME280;24026;49.446;8.576;2022-12-07T05:38:25;100572.72;;;12.27;48.34
38227;BME280;24026;49.446;8.576;2022-12-07T05:40:47;100574.56;;;12.26;48.34
38227;BME280;24026;49.446;8.576;2022-12-07T05:43:07;100577.22;;;12.26;48.42
38227;BME280;24026;49.446;8.576;2022-12-07T05:45:29;100578.84;;;12.27;48.29
38227;BME280;24026;49.446;8.576;2022-12-07T05:47:49;100582.56;;;12.26;48.16
38227;BME280;24026;49.446;8.576;2022-12-07T05:50:10;100577.75;;;12.23;48.42
38227;BME280;24026;49.446;8.576;2022-12-07T05:52:30;100576.44;;;12.26;48.43
38227;BME280;24026;49.446;8.576;2022-12-07T05:54:51;100575.88;;;12.23;48.21
38227;BME280;24026;49.446;8.576;2022-12-07T05:57:13;100576.66;;;12.24;48.23
38227;BME280;24026;49.446;8.576;2022-12-07T05:59:34;100583.38;;;12.27;48.25
38227;BME280;24026;49.446;8.576;2022-12-07T06:02:06;100585.50;;;12.25;48.45
38227;BME280;24026;49.446;8.576;2022-12-07T06:04:33;100587.31;;;12.24;48.37
38227;BME280;24026;49.446;8.576;2022-12-07T06:06:56;100584.66;;;12.24;48.36
38227;BME280;24026;49.446;8.576;2022-12-07T06:09:19;100586.28;;;12.25;48.39
38227;BME280;24026;49.446;8.576;2022-12-07T06:11:40;100589.50;;;12.27;48.29
38227;BME280;24026;49.446;8.576;2022-12-07T06:14:20;100592.47;;;12.31;48.49
38227;BME280;24026;49.446;8.576;2022-12-07T06:16:40;100579.28;;;12.41;48.00
38227;BME280;24026;49.446;8.576;2022-12-07T06:19:02;100586.34;;;12.52;47.67
38227;BME280;24026;49.446;8.576;2022-12-07T06:21:23;100583.03;;;12.67;47.61
38227;BME280;24026;49.446;8.576;2022-12-07T06:23:47;100586.22;;;12.91;47.22
38227;BME280;24026;49.446;8.576;2022-12-07T06:26:09;100584.50;;;13.07;46.71
38227;BME280;24026;49.446;8.576;2022-12-07T06:28:30;100585.75;;;13.27;46.36
38227;BME280;24026;49.446;8.576;2022-12-07T06:31:01;100580.59;;;13.47;45.69
38227;BME280;24026;49.446;8.576;2022-12-07T06:33:23;100577.50;;;13.66;45.47
38227;BME280;24026;49.446;8.576;2022-12-07T06:35:45;100584.28;;;13.79;45.29
38227;BME280;24026;49.446;8.576;2022-12-07T06:38:07;100586.22;;;13.94;44.98
38227;BME280;24026;49.446;8.576;2022-12-07T06:40:28;100586.56;;;14.07;44.78
38227;BME280;24026;49.446;8.576;2022-12-07T06:42:49;100597.53;;;14.11;44.75
38227;BME280;24026;49.446;8.576;2022-12-07T06:45:10;100592.78;;;14.23;44.76
38227;BME280;24026;49.446;8.576;2022-12-07T06:47:33;100599.50;;;14.31;44.71
38227;BME280;24026;49.446;8.576;2022-12-07T06:49:53;100591.53;;;14.46;44.25
38227;BME280;24026;49.446;8.576;2022-12-07T06:52:14;100592.94;;;14.59;44.17
38227;BME280;24026;49.446;8.576;2022-12-07T06:54:34;100586.03;;;14.63;43.59
38227;BME280;24026;49.446;8.576;2022-12-07T06:56:55;100595.91;;;14.73;43.55
38227;BME280;24026;49.446;8.576;2022-12-07T06:59:21;100590.88;;;14.92;43.32
38227;BME280;24026;49.446;8.576;2022-12-07T07:01:45;100589.84;;;15.04;43.13
38227;BME280;24026;49.446;8.576;2022-12-07T07:04:07;100598.94;;;15.18;42.67
38227;BME280;24026;49.446;8.576;2022-12-07T07:06:27;100592.78;;;15.28;42.32
38227;BME280;24026;49.446;8.576;2022-12-07T07:08:49;100596.53;;;15.27;42.28
38227;BME280;24026;49.446;8.576;2022-12-07T07:11:11;100595.19;;;15.34;42.21
38227;BME280;24026;49.446;8.576;2022-12-07T07:13:33;100590.91;;;15.49;41.98
38227;BME280;24026;49.446;8.576;2022-12-07T07:15:54;100594.09;;;15.61;41.59
38227;BME280;24026;49.446;8.576;2022-12-07T07:18:15;100597.31;;;15.68;41.49
38227;BME280;24026;49.446;8.576;2022-12-07T07:20:36;100596.25;;;15.69;41.73
38227;BME280;24026;49.446;8.576;2022-12-07T07:22:58;100597.59;;;15.77;41.53
38227;BME280;24026;49.446;8.576;2022-12-07T07:25:19;100601.06;;;15.88;41.30
38227;BME280;24026;49.446;8.576;2022-12-07T07:27:41;100595.16;;;15.91;41.37
38227;BME280;24026;49.446;8.576;2022-12-07T07:30:03;100602.66;;;15.99;41.29
38227;BME280;24026;49.446;8.576;2022-12-07T07:32:23;100602.63;;;16.04;41.16
38227;BME280;24026;49.446;8.576;2022-12-07T07:34:43;100607.44;;;16.07;40.82
38227;BME280;24026;49.446;8.576;2022-12-07T07:37:04;100605.22;;;16.25;40.62
38227;BME280;24026;49.446;8.576;2022-12-07T07:39:26;100609.78;;;16.29;40.40
38227;BME280;24026;49.446;8.576;2022-12-07T07:41:48;100604.13;;;16.36;40.42
38227;BME280;24026;49.446;8.576;2022-12-07T07:44:09;100605.69;;;16.47;40.15
38227;BME280;24026;49.446;8.576;2022-12-07T07:46:31;100616.16;;;16.49;40.08
38227;BME280;24026;49.446;8.576;2022-12-07T07:48:53;100610.47;;;16.56;40.20
38227;BME280;24026;49.446;8.576;2022-12-07T07:51:14;100607.22;;;16.64;39.92
38227;BME280;24026;49.446;8.576;2022-12-07T07:53:34;100618.75;;;16.64;39.56
38227;BME280;24026;49.446;8.576;2022-12-07T07:55:56;100622.50;;;16.63;39.99
38227;BME280;24026;49.446;8.576;2022-12-07T07:58:18;100617.97;;;16.64;39.88
38227;BME280;24026;49.446;8.576;2022-12-07T08:00:39;100613.19;;;16.45;40.31
38227;BME280;24026;49.446;8.576;2022-12-07T08:03:04;100621.00;;;16.37;40.48
38227;BME280;24026;49.446;8.576;2022-12-07T08:05:26;100615.47;;;16.18;41.00
38227;BME280;24026;49.446;8.576;2022-12-07T08:07:48;100627.00;;;16.08;41.19
38227;BME280;24026;49.446;8.576;2022-12-07T08:10:11;100623.56;;;15.97;41.55
38227;BME280;24026;49.446;8.576;2022-12-07T08:12:36;100627.88;;;15.83;41.76
38227;BME280;24026;49.446;8.576;2022-12-07T08:14:59;100623.59;;;15.77;41.62
38227;BME280;24026;49.446;8.576;2022-12-07T08:17:20;100624.69;;;15.76;41.73
38227;BME280;24026;49.446;8.576;2022-12-07T08:19:40;100628.38;;;15.69;41.92
38227;BME280;24026;49.446;8.576;2022-12-07T08:22:02;100634.03;;;15.63;41.92
38227;BME280;24026;49.446;8.576;2022-12-07T08:24:24;100639.13;;;15.59;41.91
38227;BME280;24026;49.446;8.576;2022-12-07T08:26:46;100631.34;;;15.52;41.89
38227;BME280;24026;49.446;8.576;2022-12-07T08:29:07;100634.03;;;15.47;42.01
38227;BME280;24026;49.446;8.576;2022-12-07T08:31:28;100639.13;;;15.49;42.05
38227;BME280;24026;49.446;8.576;2022-12-07T08:33:49;100633.50;;;15.50;41.94
38227;BME280;24026;49.446;8.576;2022-12-07T08:36:12;100629.72;;;15.56;41.98
38227;BME280;24026;49.446;8.576;2022-12-07T08:38:35;100636.72;;;15.47;42.34
38227;BME280;24026;49.446;8.576;2022-12-07T08:40:57;100628.41;;;15.54;42.12
38227;BME280;24026;49.446;8.576;2022-12-07T08:43:19;100640.72;;;15.55;42.18
38227;BME280;24026;49.446;8.576;2022-12-07T08:45:40;100634.28;;;15.66;42.08
38227;BME280;24026;49.446;8.576;2022-12-07T08:48:07;100627.06;;;15.87;41.82
38227;BME280;24026;49.446;8.576;2022-12-07T08:50:32;100631.88;;;16.01;41.59
38227;BME280;24026;49.446;8.576;2022-12-07T08:52:57;100629.38;;;16.20;41.42
38227;BME280;24026;49.446;8.576;2022-12-07T08:55:20;100631.75;;;16.32;41.08
38227;BME280;24026;49.446;8.576;2022-12-07T08:57:41;100626.59;;;16.45;40.99
38227;BME280;24026;49.446;8.576;2022-12-07T09:00:04;100627.66;;;16.55;40.67
38227;BME280;24026;49.446;8.576;2022-12-07T09:02:27;100627.06;;;16.68;40.17
38227;BME280;24026;49.446;8.576;2022-12-07T09:04:48;100631.28;;;16.79;39.94
38227;BME280;24026;49.446;8.576;2022-12-07T09:07:10;100620.25;;;16.91;39.88
38227;BME280;24026;49.446;8.576;2022-12-07T09:09:32;100631.47;;;16.98;40.00
38227;BME280;24026;49.446;8.576;2022-12-07T09:11:54;100624.94;;;17.10;40.17
38227;BME280;24026;49.446;8.576;2022-12-07T09:14:15;100624.41;;;17.13;39.73
38227;BME280;24026;49.446;8.576;2022-12-07T09:16:38;100627.53;;;17.25;39.58
38227;BME280;24026;49.446;8.576;2022-12-07T09:19:00;100632.56;;;17.32;39.88
38227;BME280;24026;49.446;8.576;2022-12-07T09:21:22;100628.22;;;17.41;39.36
38227;BME280;24026;49.446;8.576;2022-12-07T09:23:42;100630.31;;;17.49;38.71
38227;BME280;24026;49.446;8.576;2022-12-07T09:26:04;100635.56;;;16.85;39.33
38227;BME280;24026;49.446;8.576;2022-12-07T09:28:24;100633.00;;;16.55;39.53
38227;BME280;24026;49.446;8.576;2022-12-07T09:30:47;100636.53;;;16.45;40.08
38227;BME280;24026;49.446;8.576;2022-12-07T09:33:07;100640.13;;;16.20;39.79
38227;BME280;24026;49.446;8.576;2022-12-07T09:35:28;100632.34;;;16.18;40.25
38227;BME280;24026;49.446;8.576;2022-12-07T09:37:48;100628.63;;;16.14;40.36
38227;BME280;24026;49.446;8.576;2022-12-07T09:40:09;100632.94;;;15.95;40.35
38227;BME280;24026;49.446;8.576;2022-12-07T09:42:39;100636.69;;;15.93;40.36
38227;BME280;24026;49.446;8.576;2022-12-07T09:45:04;100632.97;;;15.84;40.56
38227;BME280;24026;49.446;8.576;2022-12-07T09:47:27;100632.94;;;15.89;40.40
38227;BME280;24026;49.446;8.576;2022-12-07T09:49:49;100626.53;;;15.80;40.38
38227;BME280;24026;49.446;8.576;2022-12-07T09:52:25;100630.56;;;15.83;40.68
38227;BME280;24026;49.446;8.576;2022-12-07T09:54:48;100626.00;;;15.78;40.84
38227;BME280;24026;49.446;8.576;2022-12-07T09:57:11;100624.91;;;15.69;40.85
38227;BME280;24026;49.446;8.576;2022-12-07T09:59:34;100624.94;;;15.79;40.94
38227;BME280;24026;49.446;8.576;2022-12-07T10:01:57;100613.41;;;15.84;40.94
38227;BME280;24026;49.446;8.576;2022-12-07T10:04:46;100617.41;;;15.91;40.69
38227;BME280;24026;49.446;8.576;2022-12-07T10:07:07;100616.88;;;15.89;40.86
38227;BME280;24026;49.446;8.576;2022-12-07T10:09:29;100622.47;;;15.93;40.92
38227;BME280;24026;49.446;8.576;2022-12-07T10:12:07;100608.28;;;15.98;40.57
38227;BME280;24026;49.446;8.576;2022-12-07T10:14:32;100611.47;;;16.00;40.55
38227;BME280;24026;49.446;8.576;2022-12-07T10:16:53;100611.19;;;16.06;40.66
38227;BME280;24026;49.446;8.576;2022-12-07T10:22:14;100611.34;;;16.41;40.13
38227;BME280;24026;49.446;8.576;2022-12-07T10:24:37;100609.38;;;16.57;40.06
38227;BME280;24026;49.446;8.576;2022-12-07T10:27:00;100605.56;;;16.73;39.95
38227;BME280;24026;49.446;8.576;2022-12-07T10:34:29;100594.94;;;17.02;38.96
38227;BME280;24026;49.446;8.576;2022-12-07T10:36:52;100594.88;;;17.13;38.98
38227;BME280;24026;49.446;8.576;2022-12-07T10:39:22;100592.06;;;17.28;38.61
38227;BME280;24026;49.446;8.576;2022-12-07T10:44:22;100588.91;;;17.50;38.28
38227;BME280;24026;49.446;8.576;2022-12-07T10:55:37;100580.06;;;17.15;38.64
38227;BME280;24026;49.446;8.576;2022-12-07T11:03:43;100583.75;;;16.85;39.50
38227;BME280;24026;49.446;8.576;2022-12-07T11:14:44;100566.22;;;16.53;39.36
38227;BME280;24026;49.446;8.576;2022-12-07T11:17:45;100557.66;;;16.51;39.43
38227;BME280;24026;49.446;8.576;2022-12-07T11:34:27;100548.66;;;16.26;40.33
38227;BME280;24026;49.446;8.576;2022-12-07T11:36:47;100549.75;;;16.20;40.52
38227;BME280;24026;49.446;8.576;2022-12-07T11:39:30;100547.88;;;16.21;40.74
38227;BME280;24026;49.446;8.576;2022-12-07T11:42:05;100546.84;;;16.06;40.87
38227;BME280;24026;49.446;8.576;2022-12-07T11:45:00;100540.44;;;16.02;41.13
38227;BME280;24026;49.446;8.576;2022-12-07T11:47:40;100532.97;;;15.94;41.31
38227;BME280;24026;49.446;8.576;2022-12-07T12:03:41;100519.41;;;16.25;40.71
38227;BME280;24026;49.446;8.576;2022-12-07T12:06:05;100519.88;;;16.42;40.53
38227;BME280;24026;49.446;8.576;2022-12-07T12:08:34;100520.25;;;16.65;40.05
38227;BME280;24026;49.446;8.576;2022-12-07T12:11:29;100513.72;;;16.81;40.33
38227;BME280;24026;49.446;8.576;2022-12-07T12:20:00;100508.44;;;17.35;38.92
38227;BME280;24026;49.446;8.576;2022-12-07T12:22:22;100504.06;;;17.44;38.91
38227;BME280;24026;49.446;8.576;2022-12-07T12:24:51;100500.16;;;17.55;38.22
38227;BME280;24026;49.446;8.576;2022-12-07T12:27:33;100494.66;;;17.71;38.18
38227;BME280;24026;49.446;8.576;2022-12-07T12:29:59;100494.69;;;17.66;38.01
38227;BME280;24026;49.446;8.576;2022-12-07T12:32:41;100496.63;;;17.60;38.09
38227;BME280;24026;49.446;8.576;2022-12-07T12:37:47;100496.75;;;17.20;38.84
38227;BME280;24026;49.446;8.576;2022-12-07T12:45:29;100487.66;;;16.82;39.42
38227;BME280;24026;49.446;8.576;2022-12-07T12:47:59;100477.47;;;16.79;39.20
38227;BME280;24026;49.446;8.576;2022-12-07T12:50:39;100478.63;;;16.73;39.21
38227;BME280;24026;49.446;8.576;2022-12-07T12:53:24;100482.38;;;16.72;39.32
38227;BME280;24026;49.446;8.576;2022-12-07T12:56:28;100480.78;;;16.71;39.16
38227;BME280;24026;49.446;8.576;2022-12-07T13:01:46;100478.91;;;16.71;39.31
38227;BME280;24026;49.446;8.576;2022-12-07T13:04:39;100472.13;;;16.79;39.20
38227;BME280;24026;49.446;8.576;2022-12-07T13:07:13;100472.38;;;16.82;39.00
38227;BME280;24026;49.446;8.576;2022-12-07T13:09:56;100466.47;;;16.80;39.02
38227;BME280;24026;49.446;8.576;2022-12-07T13:12:19;100478.34;;;16.74;38.98
38227;BME280;24026;49.446;8.576;2022-12-07T13:14:59;100460.88;;;16.77;39.10
38227;BME280;24026;49.446;8.576;2022-12-07T13:19:55;100453.66;;;16.72;39.04
38227;BME280;24026;49.446;8.576;2022-12-07T13:22:40;100459.06;;;16.67;39.33
38227;BME280;24026;49.446;8.576;2022-12-07T13:25:18;100449.72;;;16.64;39.23
38227;BME280;24026;49.446;8.576;2022-12-07T13:28:02;100445.69;;;16.62;39.21
38227;BME280;24026;49.446;8.576;2022-12-07T13:30:29;100445.22;;;16.55;39.46
38227;BME280;24026;49.446;8.576;2022-12-07T13:32:52;100439.84;;;16.55;39.14
38227;BME280;24026;49.446;8.576;2022-12-07T13:35:33;100444.69;;;16.53;39.32
38227;BME280;24026;49.446;8.576;2022-12-07T13:37:55;100446.03;;;16.50;39.63
38227;BME280;24026;49.446;8.576;2022-12-07T13:40:22;100447.44;;;16.47;39.38
38227;BME280;24026;49.446;8.576;2022-12-07T13:42:43;100442.09;;;16.42;39.54
38227;BME280;24026;49.446;8.576;2022-12-07T13:45:32;100437.81;;;16.41;39.62
38227;BME280;24026;49.446;8.576;2022-12-07T13:50:36;100437.16;;;16.55;39.24
38227;BME280;24026;49.446;8.576;2022-12-07T13:52:58;100437.88;;;16.71;38.93
38227;BME280;24026;49.446;8.576;2022-12-07T13:55:22;100433.19;;;16.81;39.06
38227;BME280;24026;49.446;8.576;2022-12-07T13:57:45;100428.81;;;16.96;38.77
38227;BME280;24026;49.446;8.576;2022-12-07T14:00:17;100426.31;;;17.04;38.62
38227;BME280;24026;49.446;8.576;2022-12-07T14:05:24;100427.13;;;17.29;37.84
38227;BME280;24026;49.446;8.576;2022-12-07T14:07:54;100433.41;;;17.44;37.72
38227;BME280;24026;49.446;8.576;2022-12-07T14:10:53;100423.88;;;17.56;37.76
38227;BME280;24026;49.446;8.576;2022-12-07T14:16:01;100439.66;;;17.82;37.04
38227;BME280;24026;49.446;8.576;2022-12-07T14:18:43;100434.25;;;17.87;36.88
38227;BME280;24026;49.446;8.576;2022-12-07T14:21:16;100436.38;;;17.66;37.52
38227;BME280;24026;49.446;8.576;2022-12-07T14:23:39;100430.50;;;17.64;37.04
38227;BME280;24026;49.446;8.576;2022-12-07T14:26:14;100433.56;;;17.52;37.40
38227;BME280;24026;49.446;8.576;2022-12-07T14:28:36;100434.25;;;17.39;37.71
38227;BME280;24026;49.446;8.576;2022-12-07T14:30:59;100437.34;;;17.27;37.97
38227;BME280;24026;49.446;8.576;2022-12-07T14:33:22;100435.00;;;17.20;37.98
38227;BME280;24026;49.446;8.576;2022-12-07T14:35:43;100439.34;;;17.16;38.16
38227;BME280;24026;49.446;8.576;2022-12-07T14:38:03;100438.84;;;17.14;38.14
38227;BME280;24026;49.446;8.576;2022-12-07T14:40:27;100437.22;;;17.13;38.06
38227;BME280;24026;49.446;8.576;2022-12-07T14:42:51;100439.97;;;17.08;38.28
38227;BME280;24026;49.446;8.576;2022-12-07T14:45:17;100441.97;;;16.92;38.30
38227;BME280;24026;49.446;8.576;2022-12-07T14:47:37;100444.38;;;16.94;38.50